createdAt,value
2022-10-22T00:00:37.564Z,95991.91
2022-10-22T00:04:51.260Z,95979.75
2022-10-22T00:09:03.719Z,95974.97
2022-10-22T00:13:16.447Z,95970.88
2022-10-22T00:17:28.829Z,95979.16
2022-10-22T00:21:41.316Z,95988.94
2022-10-22T00:25:54.286Z,95983.56
2022-10-22T00:30:07.288Z,95971.91
2022-10-22T00:34:22.089Z,95973.81
2022-10-22T00:38:35.234Z,95974.44
2022-10-22T00:42:47.915Z,95995.34
2022-10-22T00:47:00.235Z,96004.72
2022-10-22T00:51:12.629Z,96024.44
2022-10-22T00:55:27.200Z,96055.47
2022-10-22T00:59:40.324Z,96064.03
2022-10-22T01:03:52.861Z,96057.97
2022-10-22T01:08:06.686Z,96034.19
2022-10-22T01:12:49.696Z,96037.72
2022-10-22T01:17:06.329Z,96030.00
2022-10-22T01:21:37.183Z,96025.91
2022-10-22T01:26:11.044Z,96012.50
2022-10-22T01:30:24.200Z,96005.47
2022-10-22T01:34:47.827Z,96007.03
2022-10-22T01:39:02.698Z,96005.03
2022-10-22T01:43:15.998Z,96011.28
2022-10-22T01:48:20.802Z,96024.91
2022-10-22T01:52:51.617Z,96029.56
2022-10-22T01:57:13.024Z,96026.94
2022-10-22T02:01:47.299Z,96021.41
2022-10-22T02:06:06.655Z,96024.00
2022-10-22T02:10:19.171Z,96025.69
2022-10-22T02:14:33.480Z,96048.53
2022-10-22T02:18:50.442Z,96054.00
2022-10-22T02:23:03.286Z,96056.66
2022-10-22T02:27:30.571Z,96070.13
2022-10-22T02:31:46.310Z,96073.41
2022-10-22T02:36:00.199Z,96085.81
2022-10-22T02:40:12.940Z,96092.06
2022-10-22T02:44:25.622Z,96096.41
2022-10-22T02:48:38.335Z,96095.94
2022-10-22T02:52:50.586Z,96099.16
2022-10-22T02:57:11.548Z,96103.97
2022-10-22T03:01:24.035Z,96092.34
2022-10-22T03:05:36.347Z,96101.19
2022-10-22T03:09:48.662Z,96101.59
2022-10-22T03:14:00.927Z,96092.31
2022-10-22T03:18:13.191Z,96089.56
2022-10-22T03:22:34.713Z,96089.03
2022-10-22T03:26:50.391Z,96097.56
2022-10-22T03:31:02.654Z,96099.38
2022-10-22T03:35:15.001Z,96092.06
2022-10-22T03:39:29.328Z,96116.22
2022-10-22T03:43:41.948Z,96107.28
2022-10-22T03:47:54.163Z,96122.72
2022-10-22T03:52:12.819Z,96137.06
2022-10-22T03:56:25.147Z,96145.69
2022-10-22T04:00:37.851Z,96149.63
2022-10-22T04:04:50.079Z,96139.13
2022-10-22T04:09:03.073Z,96141.00
2022-10-22T04:13:15.472Z,96141.56
2022-10-22T04:17:27.748Z,96151.75
2022-10-22T04:21:40.023Z,96143.75
2022-10-22T04:25:58.864Z,96130.16
2022-10-22T04:30:13.820Z,96134.09
2022-10-22T04:34:28.742Z,96144.38
2022-10-22T04:38:41.647Z,96151.94
2022-10-22T04:42:53.885Z,96143.72
2022-10-22T04:47:06.111Z,96126.69
2022-10-22T04:51:20.223Z,96133.41
2022-10-22T04:55:32.758Z,96129.78
2022-10-22T04:59:44.993Z,96139.03
2022-10-22T05:03:59.328Z,96132.94
2022-10-22T05:08:15.194Z,96124.06
2022-10-22T05:12:27.419Z,96122.44
2022-10-22T05:16:39.902Z,96135.66
2022-10-22T05:20:52.184Z,96140.81
2022-10-22T05:25:04.613Z,96156.31
2022-10-22T05:29:17.052Z,96140.72
2022-10-22T05:33:30.683Z,96152.09
2022-10-22T05:37:43.407Z,96159.72
2022-10-22T05:41:55.831Z,96165.38
2022-10-22T05:46:16.619Z,96179.25
2022-10-22T05:50:32.937Z,96171.03
2022-10-22T05:54:45.148Z,96173.16
2022-10-22T05:58:58.082Z,96180.03
2022-10-22T06:03:11.048Z,96178.31
2022-10-22T06:07:23.427Z,96160.34
2022-10-22T06:11:35.700Z,96171.53
2022-10-22T06:15:47.930Z,96177.16
2022-10-22T06:20:00.270Z,96184.63
2022-10-22T06:24:13.013Z,96184.22
2022-10-22T06:28:25.351Z,96199.03
2022-10-22T06:32:43.199Z,96194.28
2022-10-22T06:36:55.517Z,96198.94
2022-10-22T06:41:11.026Z,96206.88
2022-10-22T06:45:23.324Z,96207.63
2022-10-22T06:49:35.688Z,96205.41
2022-10-22T06:53:48.461Z,96215.94
2022-10-22T06:58:00.698Z,96239.28
2022-10-22T07:02:12.979Z,96243.19
2022-10-22T07:06:26.937Z,96241.00
2022-10-22T07:10:39.145Z,96263.56
2022-10-22T07:14:51.460Z,96274.56
2022-10-22T07:19:05.089Z,96289.72
2022-10-22T07:23:17.426Z,96302.38
2022-10-22T07:27:29.669Z,96307.91
2022-10-22T07:31:50.639Z,96311.75
2022-10-22T07:36:06.880Z,96323.78
2022-10-22T07:40:19.247Z,96326.09
2022-10-22T07:44:31.460Z,96323.75
2022-10-22T07:48:43.752Z,96336.59
2022-10-22T07:52:57.561Z,96330.00
2022-10-22T07:57:10.746Z,96333.72
2022-10-22T08:01:23.025Z,96339.75
2022-10-22T08:05:35.518Z,96350.25
2022-10-22T08:09:47.737Z,96352.88
2022-10-22T08:14:00.834Z,96356.06
2022-10-22T08:18:13.964Z,96362.81
2022-10-22T08:22:26.244Z,96376.19
2022-10-22T08:26:38.497Z,96387.47
2022-10-22T08:30:50.774Z,96389.41
2022-10-22T08:35:03.048Z,96382.97
2022-10-22T08:39:15.342Z,96393.13
2022-10-22T08:43:52.649Z,96397.78
2022-10-22T08:48:44.157Z,96409.06
2022-10-22T08:52:59.772Z,96406.69
2022-10-22T08:57:23.625Z,96417.41
2022-10-22T09:01:40.277Z,96416.06
2022-10-22T09:06:06.031Z,96418.91
2022-10-22T09:10:20.110Z,96421.63
2022-10-22T09:14:32.393Z,96432.97
2022-10-22T09:19:24.311Z,96432.13
2022-10-22T09:23:50.676Z,96434.19
2022-10-22T09:28:03.521Z,96443.69
2022-10-22T09:32:16.863Z,96436.72
2022-10-22T09:36:38.673Z,96435.22
2022-10-22T09:41:01.959Z,96448.44
2022-10-22T09:45:25.142Z,96445.59
2022-10-22T09:49:37.436Z,96444.75
2022-10-22T09:54:02.774Z,96458.88
2022-10-22T09:58:15.241Z,96444.16
2022-10-22T10:02:44.438Z,96445.41
2022-10-22T10:07:00.496Z,96447.19
2022-10-22T10:11:28.803Z,96448.22
2022-10-22T10:16:10.757Z,96443.63
2022-10-22T10:20:39.840Z,96451.22
2022-10-22T10:25:14.031Z,96439.53
2022-10-22T10:29:51.009Z,96434.41
2022-10-22T10:34:15.408Z,96423.63
2022-10-22T10:38:44.056Z,96429.72
2022-10-22T10:43:04.941Z,96437.25
2022-10-22T10:47:26.215Z,96436.97
2022-10-22T10:51:58.344Z,96428.25
2022-10-22T10:56:46.002Z,96431.06
2022-10-22T11:01:09.930Z,96436.44
2022-10-22T11:05:44.604Z,96423.28
2022-10-22T11:10:22.727Z,96418.53
2022-10-22T11:15:03.859Z,96421.25
2022-10-22T11:19:51.044Z,96420.25
2022-10-22T11:24:18.393Z,96414.56
2022-10-22T11:28:49.659Z,96414.00
2022-10-22T11:33:06.312Z,96408.69
2022-10-22T11:37:19.516Z,96414.66
2022-10-22T11:41:35.364Z,96419.19
2022-10-22T11:45:57.412Z,96418.72
2022-10-22T11:50:23.738Z,96421.72
2022-10-22T11:54:37.553Z,96411.59
2022-10-22T11:58:53.768Z,96410.44
2022-10-22T12:03:17.991Z,96404.38
2022-10-22T12:07:35.225Z,96407.31
2022-10-22T12:11:51.307Z,96413.28
2022-10-22T12:16:04.840Z,96409.88
2022-10-22T12:20:18.340Z,96401.47
2022-10-22T12:24:35.215Z,96402.91
2022-10-22T12:28:47.430Z,96394.03
2022-10-22T12:33:01.731Z,96397.84
2022-10-22T12:37:15.946Z,96393.19
2022-10-22T12:41:35.208Z,96398.09
2022-10-22T12:45:51.191Z,96385.41
2022-10-22T12:50:04.558Z,96387.31
2022-10-22T12:54:28.285Z,96397.03
2022-10-22T12:58:48.913Z,96391.06
2022-10-22T13:03:07.646Z,96385.88
2022-10-22T13:07:22.223Z,96387.56
2022-10-22T13:11:40.705Z,96388.91
2022-10-22T13:15:52.951Z,96383.75
2022-10-22T13:20:17.973Z,96375.66
2022-10-22T13:24:31.781Z,96371.13
2022-10-22T13:28:52.164Z,96380.19
2022-10-22T13:33:27.503Z,96365.63
2022-10-22T13:37:40.071Z,96373.81
2022-10-22T13:41:52.683Z,96376.75
2022-10-22T13:46:06.502Z,96364.81
2022-10-22T13:50:28.810Z,96379.09
2022-10-22T13:54:41.173Z,96381.13
2022-10-22T13:58:53.737Z,96386.84
2022-10-22T14:03:07.196Z,96382.44
2022-10-22T14:07:19.561Z,96380.56
2022-10-22T14:11:33.406Z,96377.13
2022-10-22T14:15:48.886Z,96376.88
2022-10-22T14:20:01.399Z,96375.72
2022-10-22T14:24:13.764Z,96373.97
2022-10-22T14:28:26.085Z,96383.41
2022-10-22T14:32:38.374Z,96378.94
2022-10-22T14:36:50.740Z,96383.31
2022-10-22T14:41:03.075Z,96383.03
2022-10-22T14:45:25.691Z,96396.03
2022-10-22T14:49:37.950Z,96384.13
2022-10-22T14:53:50.281Z,96401.63
2022-10-22T14:58:02.849Z,96394.53
2022-10-22T15:02:15.140Z,96403.19
2022-10-22T15:06:28.265Z,96405.22
2022-10-22T15:10:41.014Z,96399.91
2022-10-22T15:14:53.283Z,96403.25
2022-10-22T15:19:05.496Z,96413.91
2022-10-22T15:23:17.699Z,96413.13
2022-10-22T15:27:31.473Z,96419.47
2022-10-22T15:31:51.709Z,96418.22
2022-10-22T15:36:16.405Z,96431.06
2022-10-22T15:40:28.687Z,96429.97
2022-10-22T15:44:41.451Z,96436.00
2022-10-22T15:48:54.302Z,96433.63
2022-10-22T15:53:06.729Z,96429.41
2022-10-22T15:57:18.995Z,96439.13
2022-10-22T16:01:33.874Z,96452.56
2022-10-22T16:05:55.265Z,96445.50
2022-10-22T16:10:08.470Z,96447.94
2022-10-22T16:14:22.246Z,96452.97
2022-10-22T16:18:34.652Z,96450.59
2022-10-22T16:22:50.483Z,96448.94
2022-10-22T16:27:06.779Z,96459.41
2022-10-22T16:31:20.496Z,96459.06
2022-10-22T16:35:33.450Z,96454.00
2022-10-22T16:39:46.762Z,96467.41
2022-10-22T16:44:01.580Z,96463.38
2022-10-22T16:48:13.809Z,96485.56
2022-10-22T16:52:26.058Z,96478.94
2022-10-22T16:56:45.061Z,96490.50
2022-10-22T17:00:57.332Z,96490.25
2022-10-22T17:05:09.793Z,96492.22
2022-10-22T17:09:22.264Z,96506.72
2022-10-22T17:13:34.796Z,96505.69
2022-10-22T17:17:49.277Z,96514.25
2022-10-22T17:22:14.844Z,96513.09
2022-10-22T17:26:31.176Z,96509.59
2022-10-22T17:30:43.444Z,96522.56
2022-10-22T17:34:55.729Z,96524.59
2022-10-22T17:39:08.764Z,96526.91
2022-10-22T17:43:21.007Z,96532.47
2022-10-22T17:47:33.286Z,96528.38
2022-10-22T17:51:46.203Z,96541.44
2022-10-22T17:56:03.065Z,96547.44
2022-10-22T18:00:16.971Z,96540.56
2022-10-22T18:04:31.569Z,96555.41
2022-10-22T18:08:45.019Z,96550.53
2022-10-22T18:12:57.298Z,96555.75
2022-10-22T18:17:09.614Z,96554.38
2022-10-22T18:21:32.144Z,96564.38
2022-10-22T18:25:44.495Z,96551.31
2022-10-22T18:29:56.837Z,96556.06
2022-10-22T18:34:09.275Z,96553.91
2022-10-22T18:38:24.530Z,96549.28
2022-10-22T18:42:39.011Z,96555.00
2022-10-22T18:46:52.040Z,96551.75
2022-10-22T18:51:09.647Z,96552.22
2022-10-22T18:55:21.894Z,96558.66
2022-10-22T18:59:34.113Z,96556.19
2022-10-22T19:03:46.550Z,96556.03
2022-10-22T19:07:59.181Z,96553.91
2022-10-22T19:12:11.616Z,96537.91
2022-10-22T19:16:30.511Z,96544.66
2022-10-22T19:20:45.154Z,96549.88
2022-10-22T19:24:58.824Z,96548.59
2022-10-22T19:29:14.120Z,96536.03
2022-10-22T19:33:29.528Z,96544.59
2022-10-22T19:37:46.056Z,96539.97
2022-10-22T19:42:02.249Z,96548.56
2022-10-22T19:46:14.634Z,96545.97
2022-10-22T19:50:27.002Z,96549.47
2022-10-22T19:54:49.357Z,96551.91
2022-10-22T19:59:01.646Z,96553.16
2022-10-22T20:03:15.512Z,96546.56
2022-10-22T20:07:29.852Z,96549.91
2022-10-22T20:11:42.156Z,96537.47
2022-10-22T20:15:54.483Z,96545.75
2022-10-22T20:20:07.146Z,96549.59
2022-10-22T20:24:19.924Z,96553.59
2022-10-22T20:28:33.337Z,96560.78
2022-10-22T20:32:45.663Z,96566.31
2022-10-22T20:36:57.938Z,96554.50
2022-10-22T20:41:16.710Z,96558.97
2022-10-22T20:45:37.124Z,96560.03
2022-10-22T20:49:49.416Z,96560.03
2022-10-22T20:54:01.702Z,96582.13
2022-10-22T20:58:14.120Z,96578.94
2022-10-22T21:02:26.507Z,96571.09
2022-10-22T21:06:41.056Z,96571.91
2022-10-22T21:10:53.344Z,96584.03
2022-10-22T21:15:10.240Z,96567.94
2022-10-22T21:19:24.835Z,96569.94
2022-10-22T21:23:37.805Z,96567.94
2022-10-22T21:27:50.104Z,96567.31
2022-10-22T21:32:02.409Z,96570.66
2022-10-22T21:36:17.013Z,96562.09
2022-10-22T21:40:32.520Z,96563.00
2022-10-22T21:44:44.781Z,96568.69
2022-10-22T21:49:03.221Z,96571.91
2022-10-22T21:53:15.507Z,96553.16
2022-10-22T21:57:27.936Z,96548.84
2022-10-22T22:01:40.240Z,96552.38
2022-10-22T22:06:01.461Z,96551.91
2022-10-22T22:10:13.974Z,96550.09
2022-10-22T22:14:26.487Z,96559.59
2022-10-22T22:18:39.825Z,96549.00
2022-10-22T22:22:52.107Z,96547.44
2022-10-22T22:27:04.455Z,96532.56
2022-10-22T22:31:28.328Z,96531.94
2022-10-22T22:35:40.635Z,96535.28
2022-10-22T22:39:52.892Z,96535.91
2022-10-22T22:44:05.762Z,96542.16
2022-10-22T22:48:18.052Z,96542.16
2022-10-22T22:52:30.349Z,96536.22
2022-10-22T22:56:42.632Z,96521.44
2022-10-22T23:00:54.949Z,96524.84
2022-10-22T23:05:07.770Z,96518.69
2022-10-22T23:13:39.147Z,96522.38
2022-10-22T23:17:51.425Z,96524.47
2022-10-22T23:22:03.739Z,96503.28
2022-10-22T23:26:21.606Z,96504.81
2022-10-22T23:30:33.882Z,96503.56
2022-10-22T23:34:46.151Z,96491.91
2022-10-22T23:38:58.448Z,96486.81
2022-10-22T23:43:10.732Z,96487.53
2022-10-22T23:47:23.072Z,96464.22
2022-10-22T23:51:36.011Z,96470.31
2022-10-22T23:55:48.278Z,96476.88
